sensor_id;sensor_type;location;lat;lon;timestamp;temperature;humidity
70154;DHT22;57519;51.494;-2.626;2023-03-24T00:00:11;8.28;91.30
70154;DHT22;57519;51.494;-2.626;2023-03-24T00:02:39;8.22;91.25
70154;DHT22;57519;51.494;-2.626;2023-03-24T00:05:08;8.19;91.11
70154;DHT22;57519;51.494;-2.626;2023-03-24T00:10:37;8.10;90.73
70154;DHT22;57519;51.494;-2.626;2023-03-24T00:13:04;8.16;90.08
70154;DHT22;57519;51.494;-2.626;2023-03-24T00:15:31;8.13;90.03
70154;DHT22;57519;51.494;-2.626;2023-03-24T00:17:57;8.14;89.91
70154;DHT22;57519;51.494;-2.626;2023-03-24T00:20:23;8.10;89.72
70154;DHT22;57519;51.494;-2.626;2023-03-24T00:22:52;8.03;89.85
70154;DHT22;57519;51.494;-2.626;2023-03-24T00:25:22;7.95;89.90
70154;DHT22;57519;51.494;-2.626;2023-03-24T00:27:48;7.91;90.25
70154;DHT22;57519;51.494;-2.626;2023-03-24T00:30:15;7.84;90.40
70154;DHT22;57519;51.494;-2.626;2023-03-24T00:32:41;7.79;90.29
70154;DHT22;57519;51.494;-2.626;2023-03-24T00:35:09;7.74;90.33
70154;DHT22;57519;51.494;-2.626;2023-03-24T00:37:36;7.74;90.31
70154;DHT22;57519;51.494;-2.626;2023-03-24T00:40:06;7.73;90.04
70154;DHT22;57519;51.494;-2.626;2023-03-24T00:42:34;7.68;90.31
70154;DHT22;57519;51.494;-2.626;2023-03-24T00:45:05;7.68;90.26
70154;DHT22;57519;51.494;-2.626;2023-03-24T00:47:31;7.67;90.19
70154;DHT22;57519;51.494;-2.626;2023-03-24T00:50:05;7.64;90.37
70154;DHT22;57519;51.494;-2.626;2023-03-24T00:52:32;7.61;90.47
70154;DHT22;57519;51.494;-2.626;2023-03-24T00:54:59;7.57;90.45
70154;DHT22;57519;51.494;-2.626;2023-03-24T00:57:27;7.67;90.06
70154;DHT22;57519;51.494;-2.626;2023-03-24T00:59:55;7.58;90.25
70154;DHT22;57519;51.494;-2.626;2023-03-24T01:02:25;7.58;90.28
70154;DHT22;57519;51.494;-2.626;2023-03-24T01:04:58;7.57;90.17
70154;DHT22;57519;51.494;-2.626;2023-03-24T01:07:27;7.57;90.11
70154;DHT22;57519;51.494;-2.626;2023-03-24T01:09:55;7.50;90.35
70154;DHT22;57519;51.494;-2.626;2023-03-24T01:12:29;7.51;90.09
70154;DHT22;57519;51.494;-2.626;2023-03-24T01:14:56;7.53;90.10
70154;DHT22;57519;51.494;-2.626;2023-03-24T01:17:23;7.50;90.08
70154;DHT22;57519;51.494;-2.626;2023-03-24T01:19:51;7.53;89.80
70154;DHT22;57519;51.494;-2.626;2023-03-24T01:22:17;7.47;89.85
70154;DHT22;57519;51.494;-2.626;2023-03-24T01:24:45;7.44;89.84
70154;DHT22;57519;51.494;-2.626;2023-03-24T01:27:10;7.40;89.88
70154;DHT22;57519;51.494;-2.626;2023-03-24T01:29:36;7.33;90.08
70154;DHT22;57519;51.494;-2.626;2023-03-24T01:32:01;7.28;90.35
70154;DHT22;57519;51.494;-2.626;2023-03-24T01:34:27;7.28;90.43
70154;DHT22;57519;51.494;-2.626;2023-03-24T01:36:52;7.28;90.40
70154;DHT22;57519;51.494;-2.626;2023-03-24T01:39:18;7.27;90.47
70154;DHT22;57519;51.494;-2.626;2023-03-24T01:41:43;7.24;90.37
70154;DHT22;57519;51.494;-2.626;2023-03-24T01:46:48;7.24;90.51
70154;DHT22;57519;51.494;-2.626;2023-03-24T01:49:13;7.24;90.51
70154;DHT22;57519;51.494;-2.626;2023-03-24T01:51:43;7.22;90.66
70154;DHT22;57519;51.494;-2.626;2023-03-24T01:56:42;7.27;90.14
70154;DHT22;57519;51.494;-2.626;2023-03-24T01:59:13;7.26;90.17
70154;DHT22;57519;51.494;-2.626;2023-03-24T02:01:41;7.34;89.75
70154;DHT22;57519;51.494;-2.626;2023-03-24T02:04:07;7.26;89.78
70154;DHT22;57519;51.494;-2.626;2023-03-24T02:06:35;7.27;89.72
70154;DHT22;57519;51.494;-2.626;2023-03-24T02:09:02;7.22;89.75
70154;DHT22;57519;51.494;-2.626;2023-03-24T02:11:30;7.27;89.55
70154;DHT22;57519;51.494;-2.626;2023-03-24T02:13:56;7.24;89.69
70154;DHT22;57519;51.494;-2.626;2023-03-24T02:22:02;7.24;89.55
70154;DHT22;57519;51.494;-2.626;2023-03-24T02:30:19;7.22;89.76
70154;DHT22;57519;51.494;-2.626;2023-03-24T02:41:25;7.17;89.78
70154;DHT22;57519;51.494;-2.626;2023-03-24T02:44:05;7.09;89.95
70154;DHT22;57519;51.494;-2.626;2023-03-24T02:46:44;7.10;89.65
70154;DHT22;57519;51.494;-2.626;2023-03-24T02:52:09;7.12;89.94
70154;DHT22;57519;51.494;-2.626;2023-03-24T03:00:03;7.10;89.45
70154;DHT22;57519;51.494;-2.626;2023-03-24T03:02:40;7.20;89.12
70154;DHT22;57519;51.494;-2.626;2023-03-24T03:05:18;7.19;88.72
70154;DHT22;57519;51.494;-2.626;2023-03-24T03:07:45;7.22;88.78
70154;DHT22;57519;51.494;-2.626;2023-03-24T03:10:26;7.19;88.70
70154;DHT22;57519;51.494;-2.626;2023-03-24T03:12:57;7.24;88.27
70154;DHT22;57519;51.494;-2.626;2023-03-24T03:15:36;7.24;88.31
70154;DHT22;57519;51.494;-2.626;2023-03-24T03:18:42;7.20;88.24
70154;DHT22;57519;51.494;-2.626;2023-03-24T03:21:05;7.12;88.16
70154;DHT22;57519;51.494;-2.626;2023-03-24T03:23:42;7.10;88.31
70154;DHT22;57519;51.494;-2.626;2023-03-24T03:26:13;7.02;88.38
70154;DHT22;57519;51.494;-2.626;2023-03-24T03:28:43;7.06;88.07
70154;DHT22;57519;51.494;-2.626;2023-03-24T03:31:17;7.03;87.86
70154;DHT22;57519;51.494;-2.626;2023-03-24T03:33:52;7.00;87.99
70154;DHT22;57519;51.494;-2.626;2023-03-24T03:36:25;7.00;88.24
70154;DHT22;57519;51.494;-2.626;2023-03-24T03:41:27;6.99;88.30
70154;DHT22;57519;51.494;-2.626;2023-03-24T03:43:53;6.91;88.62
70154;DHT22;57519;51.494;-2.626;2023-03-24T03:46:19;6.82;89.01
70154;DHT22;57519;51.494;-2.626;2023-03-24T03:48:48;6.85;88.86
70154;DHT22;57519;51.494;-2.626;2023-03-24T03:51:13;6.91;88.86
70154;DHT22;57519;51.494;-2.626;2023-03-24T03:53:53;6.91;88.93
70154;DHT22;57519;51.494;-2.626;2023-03-24T03:56:23;6.88;88.79
70154;DHT22;57519;51.494;-2.626;2023-03-24T03:58:52;6.88;88.80
70154;DHT22;57519;51.494;-2.626;2023-03-24T04:01:20;6.86;88.65
70154;DHT22;57519;51.494;-2.626;2023-03-24T04:06:42;6.89;88.90
70154;DHT22;57519;51.494;-2.626;2023-03-24T04:09:53;6.96;88.49
70154;DHT22;57519;51.494;-2.626;2023-03-24T04:12:27;7.00;88.33
70154;DHT22;57519;51.494;-2.626;2023-03-24T04:15:14;6.99;88.40
70154;DHT22;57519;51.494;-2.626;2023-03-24T04:17:48;7.06;88.35
70154;DHT22;57519;51.494;-2.626;2023-03-24T04:23:04;7.16;87.69
70154;DHT22;57519;51.494;-2.626;2023-03-24T04:26:14;7.15;87.49
70154;DHT22;57519;51.494;-2.626;2023-03-24T04:28:55;7.22;87.19
70154;DHT22;57519;51.494;-2.626;2023-03-24T04:31:44;7.22;86.76
70154;DHT22;57519;51.494;-2.626;2023-03-24T04:36:43;7.31;86.38
70154;DHT22;57519;51.494;-2.626;2023-03-24T04:39:15;7.27;86.52
70154;DHT22;57519;51.494;-2.626;2023-03-24T04:41:44;7.34;86.38
70154;DHT22;57519;51.494;-2.626;2023-03-24T04:44:13;7.36;86.05
70154;DHT22;57519;51.494;-2.626;2023-03-24T04:46:49;7.34;86.42
70154;DHT22;57519;51.494;-2.626;2023-03-24T04:49:15;7.27;86.66
70154;DHT22;57519;51.494;-2.626;2023-03-24T04:51:43;7.20;86.92
70154;DHT22;57519;51.494;-2.626;2023-03-24T04:54:08;7.20;86.68
70154;DHT22;57519;51.494;-2.626;2023-03-24T04:56:43;7.17;86.93
70154;DHT22;57519;51.494;-2.626;2023-03-24T04:59:13;7.23;86.84
70154;DHT22;57519;51.494;-2.626;2023-03-24T05:01:40;7.27;86.79
70154;DHT22;57519;51.494;-2.626;2023-03-24T05:04:06;7.22;87.26
70154;DHT22;57519;51.494;-2.626;2023-03-24T05:06:32;7.15;87.17
70154;DHT22;57519;51.494;-2.626;2023-03-24T05:08:58;7.17;87.49
70154;DHT22;57519;51.494;-2.626;2023-03-24T05:11:27;7.16;87.62
70154;DHT22;57519;51.494;-2.626;2023-03-24T05:13:53;7.16;87.80
70154;DHT22;57519;51.494;-2.626;2023-03-24T05:16:19;7.17;87.72
70154;DHT22;57519;51.494;-2.626;2023-03-24T05:18:45;7.20;87.86
70154;DHT22;57519;51.494;-2.626;2023-03-24T05:21:11;7.19;87.81
70154;DHT22;57519;51.494;-2.626;2023-03-24T05:23:37;7.24;87.85
70154;DHT22;57519;51.494;-2.626;2023-03-24T05:26:03;7.23;87.73
70154;DHT22;57519;51.494;-2.626;2023-03-24T05:28:29;7.28;87.73
70154;DHT22;57519;51.494;-2.626;2023-03-24T05:30:54;7.31;87.43
70154;DHT22;57519;51.494;-2.626;2023-03-24T05:33:20;7.31;87.58
70154;DHT22;57519;51.494;-2.626;2023-03-24T05:35:47;7.28;87.60
70154;DHT22;57519;51.494;-2.626;2023-03-24T05:38:16;7.34;87.59
70154;DHT22;57519;51.494;-2.626;2023-03-24T05:40:42;7.36;87.69
70154;DHT22;57519;51.494;-2.626;2023-03-24T05:43:07;7.36;87.73
70154;DHT22;57519;51.494;-2.626;2023-03-24T05:45:34;7.33;87.72
70154;DHT22;57519;51.494;-2.626;2023-03-24T05:47:59;7.37;88.04
70154;DHT22;57519;51.494;-2.626;2023-03-24T05:50:25;7.24;88.05
70154;DHT22;57519;51.494;-2.626;2023-03-24T05:52:50;7.20;88.45
70154;DHT22;57519;51.494;-2.626;2023-03-24T05:55:17;7.23;88.50
70154;DHT22;57519;51.494;-2.626;2023-03-24T05:57:44;7.22;88.45
70154;DHT22;57519;51.494;-2.626;2023-03-24T06:00:10;7.26;88.52
70154;DHT22;57519;51.494;-2.626;2023-03-24T06:02:42;7.24;88.57
70154;DHT22;57519;51.494;-2.626;2023-03-24T06:05:08;7.19;88.75
70154;DHT22;57519;51.494;-2.626;2023-03-24T06:07:34;7.19;88.83
70154;DHT22;57519;51.494;-2.626;2023-03-24T06:09:59;7.24;88.69
70154;DHT22;57519;51.494;-2.626;2023-03-24T06:12:27;7.27;88.53
70154;DHT22;57519;51.494;-2.626;2023-03-24T06:14:54;7.27;88.61
70154;DHT22;57519;51.494;-2.626;2023-03-24T06:17:20;7.30;88.53
70154;DHT22;57519;51.494;-2.626;2023-03-24T06:19:45;7.31;88.40
70154;DHT22;57519;51.494;-2.626;2023-03-24T06:22:17;7.28;88.55
70154;DHT22;57519;51.494;-2.626;2023-03-24T06:24:43;7.31;88.54
70154;DHT22;57519;51.494;-2.626;2023-03-24T06:27:10;7.40;88.48
70154;DHT22;57519;51.494;-2.626;2023-03-24T06:29:36;7.34;88.56
70154;DHT22;57519;51.494;-2.626;2023-03-24T06:32:02;7.37;88.40
70154;DHT22;57519;51.494;-2.626;2023-03-24T06:34:29;7.47;88.05
70154;DHT22;57519;51.494;-2.626;2023-03-24T06:36:56;7.50;88.04
70154;DHT22;57519;51.494;-2.626;2023-03-24T06:39:21;7.48;87.97
70154;DHT22;57519;51.494;-2.626;2023-03-24T06:41:48;7.60;87.73
70154;DHT22;57519;51.494;-2.626;2023-03-24T06:44:13;7.64;87.52
70154;DHT22;57519;51.494;-2.626;2023-03-24T06:46:39;7.74;87.36
70154;DHT22;57519;51.494;-2.626;2023-03-24T06:49:05;7.78;87.02
70154;DHT22;57519;51.494;-2.626;2023-03-24T06:51:30;7.84;86.93
70154;DHT22;57519;51.494;-2.626;2023-03-24T06:53:56;7.88;86.69
70154;DHT22;57519;51.494;-2.626;2023-03-24T06:56:22;7.96;86.65
70154;DHT22;57519;51.494;-2.626;2023-03-24T06:58:48;7.99;86.63
70154;DHT22;57519;51.494;-2.626;2023-03-24T07:01:13;8.03;86.27
70154;DHT22;57519;51.494;-2.626;2023-03-24T07:03:39;8.02;86.27
70154;DHT22;57519;51.494;-2.626;2023-03-24T07:06:07;8.06;86.19
70154;DHT22;57519;51.494;-2.626;2023-03-24T07:08:33;8.22;85.97
70154;DHT22;57519;51.494;-2.626;2023-03-24T07:10:59;8.32;85.59
70154;DHT22;57519;51.494;-2.626;2023-03-24T07:13:24;8.57;85.12
70154;DHT22;57519;51.494;-2.626;2023-03-24T07:15:51;8.65;84.65
70154;DHT22;57519;51.494;-2.626;2023-03-24T07:18:17;8.71;84.64
70154;DHT22;57519;51.494;-2.626;2023-03-24T07:20:44;8.70;84.25
70154;DHT22;57519;51.494;-2.626;2023-03-24T07:23:10;8.63;84.29
70154;DHT22;57519;51.494;-2.626;2023-03-24T07:25:35;8.63;83.77
70154;DHT22;57519;51.494;-2.626;2023-03-24T07:28:01;8.59;84.03
70154;DHT22;57519;51.494;-2.626;2023-03-24T07:30:26;8.54;84.24
70154;DHT22;57519;51.494;-2.626;2023-03-24T07:32:55;8.53;84.26
70154;DHT22;57519;51.494;-2.626;2023-03-24T07:35:20;8.57;84.17
70154;DHT22;57519;51.494;-2.626;2023-03-24T07:37:46;8.59;84.41
70154;DHT22;57519;51.494;-2.626;2023-03-24T07:40:12;8.61;84.25
70154;DHT22;57519;51.494;-2.626;2023-03-24T07:42:39;8.75;83.58
70154;DHT22;57519;51.494;-2.626;2023-03-24T07:45:09;8.80;83.67
70154;DHT22;57519;51.494;-2.626;2023-03-24T07:47:36;8.87;83.10
70154;DHT22;57519;51.494;-2.626;2023-03-24T07:50:06;8.88;83.36
70154;DHT22;57519;51.494;-2.626;2023-03-24T07:52:41;8.95;82.94
70154;DHT22;57519;51.494;-2.626;2023-03-24T07:55:10;9.04;83.20
70154;DHT22;57519;51.494;-2.626;2023-03-24T07:57:37;9.09;82.57
70154;DHT22;57519;51.494;-2.626;2023-03-24T08:00:07;9.12;82.36
70154;DHT22;57519;51.494;-2.626;2023-03-24T08:02:59;9.11;82.73
70154;DHT22;57519;51.494;-2.626;2023-03-24T08:05:28;9.18;82.40
70154;DHT22;57519;51.494;-2.626;2023-03-24T08:07:56;9.26;82.18
70154;DHT22;57519;51.494;-2.626;2023-03-24T08:10:25;9.28;82.35
70154;DHT22;57519;51.494;-2.626;2023-03-24T08:12:51;9.28;82.47
70154;DHT22;57519;51.494;-2.626;2023-03-24T08:15:17;9.36;82.05
70154;DHT22;57519;51.494;-2.626;2023-03-24T08:17:42;9.39;82.36
70154;DHT22;57519;51.494;-2.626;2023-03-24T08:20:10;9.44;82.08
70154;DHT22;57519;51.494;-2.626;2023-03-24T08:22:40;9.47;82.04
70154;DHT22;57519;51.494;-2.626;2023-03-24T08:25:06;9.57;82.23
70154;DHT22;57519;51.494;-2.626;2023-03-24T08:27:32;9.64;81.98
70154;DHT22;57519;51.494;-2.626;2023-03-24T08:29:58;9.73;81.26
70154;DHT22;57519;51.494;-2.626;2023-03-24T08:32:24;9.78;81.23
70154;DHT22;57519;51.494;-2.626;2023-03-24T08:34:49;9.87;80.26
70154;DHT22;57519;51.494;-2.626;2023-03-24T08:37:15;9.95;80.56
70154;DHT22;57519;51.494;-2.626;2023-03-24T08:39:40;10.04;79.58
70154;DHT22;57519;51.494;-2.626;2023-03-24T08:42:05;10.09;79.51
70154;DHT22;57519;51.494;-2.626;2023-03-24T08:44:31;10.15;79.61
70154;DHT22;57519;51.494;-2.626;2023-03-24T08:46:56;10.19;79.88
70154;DHT22;57519;51.494;-2.626;2023-03-24T08:49:24;10.22;79.49
70154;DHT22;57519;51.494;-2.626;2023-03-24T08:51:51;10.23;79.20
70154;DHT22;57519;51.494;-2.626;2023-03-24T08:54:16;10.29;79.46
70154;DHT22;57519;51.494;-2.626;2023-03-24T08:56:42;10.42;79.34
70154;DHT22;57519;51.494;-2.626;2023-03-24T08:59:07;10.53;78.28
70154;DHT22;57519;51.494;-2.626;2023-03-24T09:01:33;10.56;78.28
70154;DHT22;57519;51.494;-2.626;2023-03-24T09:03:59;10.50;78.01
70154;DHT22;57519;51.494;-2.626;2023-03-24T09:06:25;10.57;78.55
70154;DHT22;57519;51.494;-2.626;2023-03-24T09:08:52;10.66;77.74
70154;DHT22;57519;51.494;-2.626;2023-03-24T09:11:19;10.79;78.00
70154;DHT22;57519;51.494;-2.626;2023-03-24T09:13:46;10.93;77.81
70154;DHT22;57519;51.494;-2.626;2023-03-24T09:16:11;10.91;77.22
70154;DHT22;57519;51.494;-2.626;2023-03-24T09:18:37;10.97;77.14
70154;DHT22;57519;51.494;-2.626;2023-03-24T09:21:03;10.91;77.32
70154;DHT22;57519;51.494;-2.626;2023-03-24T09:23:28;10.94;76.61
70154;DHT22;57519;51.494;-2.626;2023-03-24T09:25:56;11.03;76.64
70154;DHT22;57519;51.494;-2.626;2023-03-24T09:28:22;10.97;77.29
70154;DHT22;57519;51.494;-2.626;2023-03-24T09:30:48;11.10;76.85
70154;DHT22;57519;51.494;-2.626;2023-03-24T09:33:13;11.19;76.48
70154;DHT22;57519;51.494;-2.626;2023-03-24T09:35:40;11.35;76.11
70154;DHT22;57519;51.494;-2.626;2023-03-24T09:38:06;11.43;75.46
70154;DHT22;57519;51.494;-2.626;2023-03-24T09:40:35;11.63;75.38
70154;DHT22;57519;51.494;-2.626;2023-03-24T09:43:11;11.79;75.27
70154;DHT22;57519;51.494;-2.626;2023-03-24T09:46:01;11.62;74.90
70154;DHT22;57519;51.494;-2.626;2023-03-24T09:48:50;11.70;75.43
70154;DHT22;57519;51.494;-2.626;2023-03-24T09:51:32;11.66;75.10
70154;DHT22;57519;51.494;-2.626;2023-03-24T09:56:45;11.90;74.64
70154;DHT22;57519;51.494;-2.626;2023-03-24T09:59:19;11.97;74.01
70154;DHT22;57519;51.494;-2.626;2023-03-24T10:01:45;12.05;73.83
70154;DHT22;57519;51.494;-2.626;2023-03-24T10:04:16;12.18;73.82
70154;DHT22;57519;51.494;-2.626;2023-03-24T10:06:43;12.05;73.17
70154;DHT22;57519;51.494;-2.626;2023-03-24T10:09:28;12.34;72.97
70154;DHT22;57519;51.494;-2.626;2023-03-24T10:12:15;12.52;71.96
70154;DHT22;57519;51.494;-2.626;2023-03-24T10:14:50;12.93;72.22
70154;DHT22;57519;51.494;-2.626;2023-03-24T10:17:42;13.11;70.09
70154;DHT22;57519;51.494;-2.626;2023-03-24T10:23:03;13.30;69.00
70154;DHT22;57519;51.494;-2.626;2023-03-24T10:28:15;13.53;67.83
70154;DHT22;57519;51.494;-2.626;2023-03-24T10:30:43;13.50;67.75
70154;DHT22;57519;51.494;-2.626;2023-03-24T10:33:11;13.83;69.19
70154;DHT22;57519;51.494;-2.626;2023-03-24T10:35:57;13.81;67.25
70154;DHT22;57519;51.494;-2.626;2023-03-24T10:38:27;13.62;68.22
70154;DHT22;57519;51.494;-2.626;2023-03-24T10:40:54;13.37;67.89
70154;DHT22;57519;51.494;-2.626;2023-03-24T10:43:20;13.26;68.78
70154;DHT22;57519;51.494;-2.626;2023-03-24T10:45:50;13.18;69.77
70154;DHT22;57519;51.494;-2.626;2023-03-24T10:53:42;12.96;71.59
70154;DHT22;57519;51.494;-2.626;2023-03-24T10:56:12;13.21;70.84
70154;DHT22;57519;51.494;-2.626;2023-03-24T10:58:41;13.23;69.36
70154;DHT22;57519;51.494;-2.626;2023-03-24T11:01:26;13.40;69.21
70154;DHT22;57519;51.494;-2.626;2023-03-24T11:04:02;13.37;69.34
70154;DHT22;57519;51.494;-2.626;2023-03-24T11:06:30;13.69;69.27
70154;DHT22;57519;51.494;-2.626;2023-03-24T11:09:15;13.53;68.90
70154;DHT22;57519;51.494;-2.626;2023-03-24T11:11:42;13.07;68.78
70154;DHT22;57519;51.494;-2.626;2023-03-24T11:14:24;13.13;69.13
70154;DHT22;57519;51.494;-2.626;2023-03-24T11:16:51;13.33;69.30
70154;DHT22;57519;51.494;-2.626;2023-03-24T11:19:21;13.41;69.39
70154;DHT22;57519;51.494;-2.626;2023-03-24T11:21:48;13.27;68.31
70154;DHT22;57519;51.494;-2.626;2023-03-24T11:24:16;13.21;68.86
70154;DHT22;57519;51.494;-2.626;2023-03-24T11:26:59;13.37;67.56
70154;DHT22;57519;51.494;-2.626;2023-03-24T11:29:27;13.64;66.69
70154;DHT22;57519;51.494;-2.626;2023-03-24T11:31:59;13.85;66.38
70154;DHT22;57519;51.494;-2.626;2023-03-24T11:34:33;13.66;66.81
70154;DHT22;57519;51.494;-2.626;2023-03-24T11:37:04;13.62;66.99
70154;DHT22;57519;51.494;-2.626;2023-03-24T11:39:33;13.43;66.82
70154;DHT22;57519;51.494;-2.626;2023-03-24T11:47:11;13.50;66.38
70154;DHT22;57519;51.494;-2.626;2023-03-24T11:50:36;13.54;65.49
70154;DHT22;57519;51.494;-2.626;2023-03-24T11:58:31;13.55;64.81
70154;DHT22;57519;51.494;-2.626;2023-03-24T12:09:16;13.82;65.76
70154;DHT22;57519;51.494;-2.626;2023-03-24T12:12:03;14.01;66.07
70154;DHT22;57519;51.494;-2.626;2023-03-24T12:14:58;13.57;66.95
70154;DHT22;57519;51.494;-2.626;2023-03-24T12:20:20;13.06;68.34
70154;DHT22;57519;51.494;-2.626;2023-03-24T12:23:23;13.24;67.56
70154;DHT22;57519;51.494;-2.626;2023-03-24T12:26:15;13.53;68.53
70154;DHT22;57519;51.494;-2.626;2023-03-24T12:42:44;12.97;67.75
70154;DHT22;57519;51.494;-2.626;2023-03-24T12:46:06;12.51;69.74
70154;DHT22;57519;51.494;-2.626;2023-03-24T12:48:32;12.11;73.96
70154;DHT22;57519;51.494;-2.626;2023-03-24T12:54:11;12.05;75.82
70154;DHT22;57519;51.494;-2.626;2023-03-24T12:56:49;12.21;77.33
70154;DHT22;57519;51.494;-2.626;2023-03-24T12:59:25;12.28;77.36
70154;DHT22;57519;51.494;-2.626;2023-03-24T13:04:41;12.65;77.34
70154;DHT22;57519;51.494;-2.626;2023-03-24T13:07:11;12.42;77.36
70154;DHT22;57519;51.494;-2.626;2023-03-24T13:09:53;12.53;77.17
70154;DHT22;57519;51.494;-2.626;2023-03-24T13:12:30;12.61;75.66
70154;DHT22;57519;51.494;-2.626;2023-03-24T13:15:15;12.62;75.63
70154;DHT22;57519;51.494;-2.626;2023-03-24T13:20:43;12.68;72.10
70154;DHT22;57519;51.494;-2.626;2023-03-24T13:34:22;13.33;68.68
70154;DHT22;57519;51.494;-2.626;2023-03-24T13:36:53;13.27;70.84
70154;DHT22;57519;51.494;-2.626;2023-03-24T13:39:22;12.95;73.41
70154;DHT22;57519;51.494;-2.626;2023-03-24T13:41:55;12.51;74.88
70154;DHT22;57519;51.494;-2.626;2023-03-24T13:44:43;12.01;76.24
70154;DHT22;57519;51.494;-2.626;2023-03-24T13:47:18;11.87;77.64
70154;DHT22;57519;51.494;-2.626;2023-03-24T13:50:00;11.82;78.23
70154;DHT22;57519;51.494;-2.626;2023-03-24T13:52:34;11.66;76.69
70154;DHT22;57519;51.494;-2.626;2023-03-24T13:55:08;11.75;76.96
70154;DHT22;57519;51.494;-2.626;2023-03-24T13:57:40;11.67;75.52
70154;DHT22;57519;51.494;-2.626;2023-03-24T14:02:47;11.69;76.78
70154;DHT22;57519;51.494;-2.626;2023-03-24T14:05:39;11.56;75.00
70154;DHT22;57519;51.494;-2.626;2023-03-24T14:15:53;12.21;74.06
70154;DHT22;57519;51.494;-2.626;2023-03-24T14:21:00;12.46;73.18
70154;DHT22;57519;51.494;-2.626;2023-03-24T14:26:13;12.69;70.38
70154;DHT22;57519;51.494;-2.626;2023-03-24T14:28:43;12.82;70.37
70154;DHT22;57519;51.494;-2.626;2023-03-24T14:36:29;12.95;70.22
70154;DHT22;57519;51.494;-2.626;2023-03-24T14:38:56;12.86;69.19
70154;DHT22;57519;51.494;-2.626;2023-03-24T14:41:27;12.92;69.17
70154;DHT22;57519;51.494;-2.626;2023-03-24T14:43:57;12.86;68.60
70154;DHT22;57519;51.494;-2.626;2023-03-24T14:46:39;12.61;69.16
70154;DHT22;57519;51.494;-2.626;2023-03-24T14:49:26;12.51;72.98
70154;DHT22;57519;51.494;-2.626;2023-03-24T14:54:40;11.79;76.68
70154;DHT22;57519;51.494;-2.626;2023-03-24T14:58:15;11.76;78.25
70154;DHT22;57519;51.494;-2.626;2023-03-24T15:00:45;11.80;78.07
70154;DHT22;57519;51.494;-2.626;2023-03-24T15:03:32;11.86;77.14
70154;DHT22;57519;51.494;-2.626;2023-03-24T15:06:16;11.73;77.11
70154;DHT22;57519;51.494;-2.626;2023-03-24T15:08:45;11.69;76.40
70154;DHT22;57519;51.494;-2.626;2023-03-24T15:11:17;11.63;76.73
70154;DHT22;57519;51.494;-2.626;2023-03-24T15:13:48;11.76;76.01
70154;DHT22;57519;51.494;-2.626;2023-03-24T15:19:08;11.89;75.63
70154;DHT22;57519;51.494;-2.626;2023-03-24T15:21:38;11.76;73.64
70154;DHT22;57519;51.494;-2.626;2023-03-24T15:26:46;11.94;73.98
70154;DHT22;57519;51.494;-2.626;2023-03-24T15:29:11;12.20;73.95
70154;DHT22;57519;51.494;-2.626;2023-03-24T15:31:37;12.30;72.87
70154;DHT22;57519;51.494;-2.626;2023-03-24T15:37:04;12.46;72.12
70154;DHT22;57519;51.494;-2.626;2023-03-24T15:39:37;12.62;71.70
70154;DHT22;57519;51.494;-2.626;2023-03-24T15:42:07;12.66;71.45
70154;DHT22;57519;51.494;-2.626;2023-03-24T15:44:38;12.78;71.11
70154;DHT22;57519;51.494;-2.626;2023-03-24T15:47:09;12.69;70.24
70154;DHT22;57519;51.494;-2.626;2023-03-24T15:49:54;12.63;70.71
70154;DHT22;57519;51.494;-2.626;2023-03-24T15:54:59;12.61;69.83
70154;DHT22;57519;51.494;-2.626;2023-03-24T15:57:37;12.63;70.01
70154;DHT22;57519;51.494;-2.626;2023-03-24T16:02:49;12.62;70.64
70154;DHT22;57519;51.494;-2.626;2023-03-24T16:05:26;12.72;70.68
70154;DHT22;57519;51.494;-2.626;2023-03-24T16:07:57;12.73;70.66
70154;DHT22;57519;51.494;-2.626;2023-03-24T16:12:52;12.75;70.68
70154;DHT22;57519;51.494;-2.626;2023-03-24T16:15:17;12.76;70.66
70154;DHT22;57519;51.494;-2.626;2023-03-24T16:17:43;12.65;69.71
70154;DHT22;57519;51.494;-2.626;2023-03-24T16:20:18;12.48;70.30
70154;DHT22;57519;51.494;-2.626;2023-03-24T16:22:52;12.37;70.92
70154;DHT22;57519;51.494;-2.626;2023-03-24T16:25:17;12.40;72.53
70154;DHT22;57519;51.494;-2.626;2023-03-24T16:27:43;12.49;73.89
70154;DHT22;57519;51.494;-2.626;2023-03-24T16:30:21;12.49;74.28
70154;DHT22;57519;51.494;-2.626;2023-03-24T16:32:49;12.35;72.78
70154;DHT22;57519;51.494;-2.626;2023-03-24T16:35:15;12.17;72.99
70154;DHT22;57519;51.494;-2.626;2023-03-24T16:37:43;12.21;73.43
70154;DHT22;57519;51.494;-2.626;2023-03-24T16:42:56;11.98;73.31
70154;DHT22;57519;51.494;-2.626;2023-03-24T16:45:33;12.04;72.73
70154;DHT22;57519;51.494;-2.626;2023-03-24T16:48:02;12.07;71.87
70154;DHT22;57519;51.494;-2.626;2023-03-24T16:54:18;11.96;71.20
70154;DHT22;57519;51.494;-2.626;2023-03-24T16:56:44;11.86;70.21
70154;DHT22;57519;51.494;-2.626;2023-03-24T16:59:10;11.83;70.14
70154;DHT22;57519;51.494;-2.626;2023-03-24T17:01:41;11.76;70.05
70154;DHT22;57519;51.494;-2.626;2023-03-24T17:04:15;11.69;70.48
70154;DHT22;57519;51.494;-2.626;2023-03-24T17:06:49;11.69;70.39
70154;DHT22;57519;51.494;-2.626;2023-03-24T17:09:17;11.70;70.00
70154;DHT22;57519;51.494;-2.626;2023-03-24T17:11:48;11.66;69.28
70154;DHT22;57519;51.494;-2.626;2023-03-24T17:14:15;11.62;69.44
70154;DHT22;57519;51.494;-2.626;2023-03-24T17:16:43;11.52;70.22
70154;DHT22;57519;51.494;-2.626;2023-03-24T17:19:11;11.36;69.98
70154;DHT22;57519;51.494;-2.626;2023-03-24T17:21:47;11.49;70.28
70154;DHT22;57519;51.494;-2.626;2023-03-24T17:24:14;11.70;69.49
70154;DHT22;57519;51.494;-2.626;2023-03-24T17:26:40;11.67;69.29
70154;DHT22;57519;51.494;-2.626;2023-03-24T17:29:08;11.58;69.97
70154;DHT22;57519;51.494;-2.626;2023-03-24T17:31:34;11.40;70.61
70154;DHT22;57519;51.494;-2.626;2023-03-24T17:34:00;11.36;71.01
70154;DHT22;57519;51.494;-2.626;2023-03-24T17:38:51;11.10;71.86
70154;DHT22;57519;51.494;-2.626;2023-03-24T17:41:16;11.12;72.24
70154;DHT22;57519;51.494;-2.626;2023-03-24T17:43:44;11.14;72.37
70154;DHT22;57519;51.494;-2.626;2023-03-24T17:46:09;11.18;71.68
70154;DHT22;57519;51.494;-2.626;2023-03-24T17:48:35;11.17;71.82
70154;DHT22;57519;51.494;-2.626;2023-03-24T17:51:01;11.17;72.46
70154;DHT22;57519;51.494;-2.626;2023-03-24T17:53:26;11.17;72.16
70154;DHT22;57519;51.494;-2.626;2023-03-24T17:55:57;11.11;72.07
70154;DHT22;57519;51.494;-2.626;2023-03-24T17:58:24;11.08;71.96
70154;DHT22;57519;51.494;-2.626;2023-03-24T18:00:56;11.10;72.01
70154;DHT22;57519;51.494;-2.626;2023-03-24T18:03:22;10.96;71.99
70154;DHT22;57519;51.494;-2.626;2023-03-24T18:05:50;10.83;72.20
70154;DHT22;57519;51.494;-2.626;2023-03-24T18:08:15;10.71;72.75
70154;DHT22;57519;51.494;-2.626;2023-03-24T18:10:41;10.60;72.78
70154;DHT22;57519;51.494;-2.626;2023-03-24T18:13:06;10.66;72.68
70154;DHT22;57519;51.494;-2.626;2023-03-24T18:15:33;10.62;73.04
70154;DHT22;57519;51.494;-2.626;2023-03-24T18:17:58;10.63;73.19
70154;DHT22;57519;51.494;-2.626;2023-03-24T18:20:24;10.57;73.62
70154;DHT22;57519;51.494;-2.626;2023-03-24T18:22:50;10.57;73.42
70154;DHT22;57519;51.494;-2.626;2023-03-24T18:25:16;10.56;73.86
70154;DHT22;57519;51.494;-2.626;2023-03-24T18:27:42;10.55;73.88